sensor_id;sensor_type;location;lat;lon;timestamp;P1;durP1;ratioP1;P2;durP2;ratioP2
5333;SDS011;2689;50.954;7.116;2023-03-01T00:00:00;13.02;;;7.20;;
5333;SDS011;2689;50.954;7.116;2023-03-01T00:02:28;9.13;;;7.18;;
5333;SDS011;2689;50.954;7.116;2023-03-01T00:04:55;11.40;;;7.60;;
5333;SDS011;2689;50.954;7.116;2023-03-01T00:07:21;12.88;;;6.80;;
5333;SDS011;2689;50.954;7.116;2023-03-01T00:09:49;15.20;;;8.15;;
5333;SDS011;2689;50.954;7.116;2023-03-01T00:12:16;11.70;;;7.90;;
5333;SDS011;2689;50.954;7.116;2023-03-01T00:14:43;12.13;;;6.75;;
5333;SDS011;2689;50.954;7.116;2023-03-01T00:17:10;10.13;;;7.20;;
5333;SDS011;2689;50.954;7.116;2023-03-01T00:19:37;8.73;;;6.70;;
5333;SDS011;2689;50.954;7.116;2023-03-01T00:22:03;10.60;;;7.47;;
5333;SDS011;2689;50.954;7.116;2023-03-01T00:24:30;7.22;;;5.68;;
5333;SDS011;2689;50.954;7.116;2023-03-01T00:26:59;9.20;;;6.77;;
5333;SDS011;2689;50.954;7.116;2023-03-01T00:29:26;11.52;;;6.75;;
5333;SDS011;2689;50.954;7.116;2023-03-01T00:31:53;9.13;;;6.43;;
5333;SDS011;2689;50.954;7.116;2023-03-01T00:34:20;7.90;;;5.97;;
5333;SDS011;2689;50.954;7.116;2023-03-01T00:36:48;7.85;;;6.13;;
5333;SDS011;2689;50.954;7.116;2023-03-01T00:39:14;9.27;;;6.18;;
5333;SDS011;2689;50.954;7.116;2023-03-01T00:41:41;9.02;;;6.60;;
5333;SDS011;2689;50.954;7.116;2023-03-01T00:44:10;8.73;;;6.00;;
5333;SDS011;2689;50.954;7.116;2023-03-01T00:46:38;8.95;;;6.25;;
5333;SDS011;2689;50.954;7.116;2023-03-01T00:49:05;10.18;;;6.38;;
5333;SDS011;2689;50.954;7.116;2023-03-01T00:51:32;9.05;;;7.07;;
5333;SDS011;2689;50.954;7.116;2023-03-01T00:54:00;8.10;;;6.05;;
5333;SDS011;2689;50.954;7.116;2023-03-01T00:56:30;7.75;;;6.68;;
5333;SDS011;2689;50.954;7.116;2023-03-01T00:58:58;9.48;;;6.70;;
5333;SDS011;2689;50.954;7.116;2023-03-01T01:01:26;7.20;;;5.75;;
5333;SDS011;2689;50.954;7.116;2023-03-01T01:03:56;8.32;;;6.20;;
5333;SDS011;2689;50.954;7.116;2023-03-01T01:06:24;10.35;;;5.95;;
5333;SDS011;2689;50.954;7.116;2023-03-01T01:08:53;8.75;;;6.95;;
5333;SDS011;2689;50.954;7.116;2023-03-01T01:11:20;9.73;;;6.30;;
5333;SDS011;2689;50.954;7.116;2023-03-01T01:13:48;9.10;;;6.35;;
5333;SDS011;2689;50.954;7.116;2023-03-01T01:16:17;8.23;;;6.03;;
5333;SDS011;2689;50.954;7.116;2023-03-01T01:18:46;9.90;;;5.97;;
5333;SDS011;2689;50.954;7.116;2023-03-01T01:21:14;11.02;;;6.50;;
5333;SDS011;2689;50.954;7.116;2023-03-01T01:23:42;8.05;;;5.70;;
5333;SDS011;2689;50.954;7.116;2023-03-01T01:26:11;14.57;;;6.05;;
5333;SDS011;2689;50.954;7.116;2023-03-01T01:28:40;9.60;;;6.22;;
5333;SDS011;2689;50.954;7.116;2023-03-01T01:31:07;9.18;;;5.50;;
5333;SDS011;2689;50.954;7.116;2023-03-01T01:33:35;7.47;;;6.05;;
5333;SDS011;2689;50.954;7.116;2023-03-01T01:36:05;7.13;;;5.50;;
5333;SDS011;2689;50.954;7.116;2023-03-01T01:38:36;8.33;;;6.10;;
5333;SDS011;2689;50.954;7.116;2023-03-01T01:41:04;8.45;;;6.18;;
5333;SDS011;2689;50.954;7.116;2023-03-01T01:43:34;6.95;;;5.97;;
5333;SDS011;2689;50.954;7.116;2023-03-01T01:46:03;8.90;;;6.65;;
5333;SDS011;2689;50.954;7.116;2023-03-01T01:48:34;8.30;;;6.18;;
5333;SDS011;2689;50.954;7.116;2023-03-01T01:51:12;8.85;;;6.40;;
5333;SDS011;2689;50.954;7.116;2023-03-01T01:53:43;8.77;;;6.55;;
5333;SDS011;2689;50.954;7.116;2023-03-01T01:56:14;8.80;;;6.60;;
5333;SDS011;2689;50.954;7.116;2023-03-01T01:58:44;8.98;;;6.05;;
5333;SDS011;2689;50.954;7.116;2023-03-01T02:01:12;8.18;;;5.93;;
5333;SDS011;2689;50.954;7.116;2023-03-01T02:03:39;8.60;;;6.00;;
5333;SDS011;2689;50.954;7.116;2023-03-01T02:06:16;11.05;;;6.65;;
5333;SDS011;2689;50.954;7.116;2023-03-01T02:08:45;6.65;;;5.38;;
5333;SDS011;2689;50.954;7.116;2023-03-01T02:11:14;8.05;;;6.03;;
5333;SDS011;2689;50.954;7.116;2023-03-01T02:13:42;9.23;;;6.50;;
5333;SDS011;2689;50.954;7.116;2023-03-01T02:16:09;7.60;;;6.20;;
5333;SDS011;2689;50.954;7.116;2023-03-01T02:18:37;10.65;;;6.25;;
5333;SDS011;2689;50.954;7.116;2023-03-01T02:21:16;10.75;;;6.63;;
5333;SDS011;2689;50.954;7.116;2023-03-01T02:23:52;8.43;;;6.13;;
5333;SDS011;2689;50.954;7.116;2023-03-01T02:26:23;9.55;;;5.57;;
5333;SDS011;2689;50.954;7.116;2023-03-01T02:28:57;9.68;;;6.85;;
5333;SDS011;2689;50.954;7.116;2023-03-01T02:31:24;6.38;;;5.60;;
5333;SDS011;2689;50.954;7.116;2023-03-01T02:34:11;8.82;;;6.53;;
5333;SDS011;2689;50.954;7.116;2023-03-01T02:36:41;7.80;;;6.10;;
5333;SDS011;2689;50.954;7.116;2023-03-01T02:39:12;7.80;;;6.05;;
5333;SDS011;2689;50.954;7.116;2023-03-01T02:41:44;10.27;;;7.03;;
5333;SDS011;2689;50.954;7.116;2023-03-01T02:44:15;8.00;;;6.65;;
5333;SDS011;2689;50.954;7.116;2023-03-01T02:46:43;10.05;;;7.18;;
5333;SDS011;2689;50.954;7.116;2023-03-01T02:49:18;9.95;;;6.90;;
5333;SDS011;2689;50.954;7.116;2023-03-01T02:55:03;9.40;;;6.97;;
5333;SDS011;2689;50.954;7.116;2023-03-01T02:57:33;8.38;;;6.63;;
5333;SDS011;2689;50.954;7.116;2023-03-01T03:00:05;11.05;;;7.57;;
5333;SDS011;2689;50.954;7.116;2023-03-01T03:02:34;10.20;;;7.45;;
5333;SDS011;2689;50.954;7.116;2023-03-01T03:05:05;11.45;;;6.97;;
5333;SDS011;2689;50.954;7.116;2023-03-01T03:07:35;9.40;;;6.85;;
5333;SDS011;2689;50.954;7.116;2023-03-01T03:10:03;8.30;;;5.93;;
5333;SDS011;2689;50.954;7.116;2023-03-01T03:12:31;10.70;;;6.90;;
5333;SDS011;2689;50.954;7.116;2023-03-01T03:14:58;8.70;;;5.75;;
5333;SDS011;2689;50.954;7.116;2023-03-01T03:17:26;8.15;;;6.53;;
5333;SDS011;2689;50.954;7.116;2023-03-01T03:19:52;10.63;;;7.20;;
5333;SDS011;2689;50.954;7.116;2023-03-01T03:22:19;10.25;;;6.63;;
5333;SDS011;2689;50.954;7.116;2023-03-01T03:24:46;9.07;;;5.75;;
5333;SDS011;2689;50.954;7.116;2023-03-01T03:27:13;16.20;;;6.82;;
5333;SDS011;2689;50.954;7.116;2023-03-01T03:29:40;9.20;;;6.90;;
5333;SDS011;2689;50.954;7.116;2023-03-01T03:32:06;7.80;;;6.45;;
5333;SDS011;2689;50.954;7.116;2023-03-01T03:34:35;7.50;;;5.95;;
5333;SDS011;2689;50.954;7.116;2023-03-01T03:37:11;13.02;;;6.82;;
5333;SDS011;2689;50.954;7.116;2023-03-01T03:39:51;8.15;;;5.95;;
5333;SDS011;2689;50.954;7.116;2023-03-01T03:42:19;7.97;;;7.03;;
5333;SDS011;2689;50.954;7.116;2023-03-01T03:44:46;8.15;;;6.63;;
5333;SDS011;2689;50.954;7.116;2023-03-01T03:47:13;13.27;;;7.50;;
5333;SDS011;2689;50.954;7.116;2023-03-01T03:49:41;8.95;;;6.90;;
5333;SDS011;2689;50.954;7.116;2023-03-01T03:52:08;7.72;;;6.72;;
5333;SDS011;2689;50.954;7.116;2023-03-01T03:54:38;10.02;;;6.68;;
5333;SDS011;2689;50.954;7.116;2023-03-01T03:57:05;10.85;;;8.60;;
5333;SDS011;2689;50.954;7.116;2023-03-01T03:59:32;15.25;;;8.43;;
5333;SDS011;2689;50.954;7.116;2023-03-01T04:01:59;12.07;;;7.93;;
5333;SDS011;2689;50.954;7.116;2023-03-01T04:04:26;10.02;;;7.90;;
5333;SDS011;2689;50.954;7.116;2023-03-01T04:06:54;10.60;;;8.00;;
5333;SDS011;2689;50.954;7.116;2023-03-01T04:09:21;11.63;;;8.00;;
5333;SDS011;2689;50.954;7.116;2023-03-01T04:11:48;10.18;;;8.32;;
5333;SDS011;2689;50.954;7.116;2023-03-01T04:14:14;11.35;;;7.70;;
5333;SDS011;2689;50.954;7.116;2023-03-01T04:16:41;12.65;;;8.77;;
5333;SDS011;2689;50.954;7.116;2023-03-01T04:19:08;10.40;;;7.30;;
5333;SDS011;2689;50.954;7.116;2023-03-01T04:21:35;12.18;;;8.52;;
5333;SDS011;2689;50.954;7.116;2023-03-01T04:24:03;12.20;;;8.70;;
5333;SDS011;2689;50.954;7.116;2023-03-01T04:26:31;14.95;;;10.57;;
5333;SDS011;2689;50.954;7.116;2023-03-01T04:28:58;11.40;;;8.40;;
5333;SDS011;2689;50.954;7.116;2023-03-01T04:31:25;14.65;;;9.52;;
5333;SDS011;2689;50.954;7.116;2023-03-01T04:33:52;11.75;;;8.40;;
5333;SDS011;2689;50.954;7.116;2023-03-01T04:36:21;11.38;;;8.73;;
5333;SDS011;2689;50.954;7.116;2023-03-01T04:38:49;11.65;;;7.97;;
5333;SDS011;2689;50.954;7.116;2023-03-01T04:41:18;13.20;;;10.10;;
5333;SDS011;2689;50.954;7.116;2023-03-01T04:43:47;12.52;;;8.55;;
5333;SDS011;2689;50.954;7.116;2023-03-01T04:46:15;11.80;;;8.00;;
5333;SDS011;2689;50.954;7.116;2023-03-01T04:48:43;13.07;;;8.50;;
5333;SDS011;2689;50.954;7.116;2023-03-01T04:51:11;9.18;;;7.63;;
5333;SDS011;2689;50.954;7.116;2023-03-01T04:53:39;11.90;;;8.23;;
5333;SDS011;2689;50.954;7.116;2023-03-01T04:56:06;11.90;;;8.02;;
5333;SDS011;2689;50.954;7.116;2023-03-01T04:58:35;19.38;;;8.77;;
5333;SDS011;2689;50.954;7.116;2023-03-01T05:01:07;15.38;;;8.07;;
5333;SDS011;2689;50.954;7.116;2023-03-01T05:03:40;12.05;;;7.80;;
5333;SDS011;2689;50.954;7.116;2023-03-01T05:06:08;11.20;;;8.77;;
5333;SDS011;2689;50.954;7.116;2023-03-01T05:08:35;11.07;;;7.68;;
5333;SDS011;2689;50.954;7.116;2023-03-01T05:11:03;15.13;;;8.55;;
5333;SDS011;2689;50.954;7.116;2023-03-01T05:13:29;11.10;;;8.13;;
5333;SDS011;2689;50.954;7.116;2023-03-01T05:15:58;9.80;;;8.43;;
5333;SDS011;2689;50.954;7.116;2023-03-01T05:18:27;12.43;;;8.95;;
5333;SDS011;2689;50.954;7.116;2023-03-01T05:20:55;20.17;;;8.70;;
5333;SDS011;2689;50.954;7.116;2023-03-01T05:23:29;10.88;;;7.82;;
5333;SDS011;2689;50.954;7.116;2023-03-01T05:25:57;14.00;;;8.73;;
5333;SDS011;2689;50.954;7.116;2023-03-01T05:28:24;12.93;;;8.63;;
5333;SDS011;2689;50.954;7.116;2023-03-01T05:30:53;8.40;;;6.65;;
5333;SDS011;2689;50.954;7.116;2023-03-01T05:33:21;9.77;;;7.45;;
5333;SDS011;2689;50.954;7.116;2023-03-01T05:35:49;12.52;;;7.85;;
5333;SDS011;2689;50.954;7.116;2023-03-01T05:38:16;10.32;;;8.15;;
5333;SDS011;2689;50.954;7.116;2023-03-01T05:40:44;12.55;;;8.30;;
5333;SDS011;2689;50.954;7.116;2023-03-01T05:43:13;13.15;;;9.00;;
5333;SDS011;2689;50.954;7.116;2023-03-01T05:45:41;11.45;;;8.98;;
5333;SDS011;2689;50.954;7.116;2023-03-01T05:48:08;16.10;;;8.65;;
5333;SDS011;2689;50.954;7.116;2023-03-01T05:50:38;12.40;;;8.80;;
5333;SDS011;2689;50.954;7.116;2023-03-01T05:53:07;12.57;;;9.40;;
5333;SDS011;2689;50.954;7.116;2023-03-01T05:55:37;11.18;;;8.73;;
5333;SDS011;2689;50.954;7.116;2023-03-01T05:58:05;11.93;;;8.23;;
5333;SDS011;2689;50.954;7.116;2023-03-01T06:00:33;8.77;;;7.40;;
5333;SDS011;2689;50.954;7.116;2023-03-01T06:03:01;13.65;;;8.93;;
5333;SDS011;2689;50.954;7.116;2023-03-01T06:05:28;12.32;;;8.00;;
5333;SDS011;2689;50.954;7.116;2023-03-01T06:08:00;10.85;;;8.60;;
5333;SDS011;2689;50.954;7.116;2023-03-01T06:10:27;10.18;;;8.25;;
5333;SDS011;2689;50.954;7.116;2023-03-01T06:12:54;15.38;;;9.15;;
5333;SDS011;2689;50.954;7.116;2023-03-01T06:15:21;13.30;;;8.82;;
5333;SDS011;2689;50.954;7.116;2023-03-01T06:17:49;13.20;;;8.82;;
5333;SDS011;2689;50.954;7.116;2023-03-01T06:20:17;16.40;;;8.40;;
5333;SDS011;2689;50.954;7.116;2023-03-01T06:22:46;11.98;;;8.40;;
5333;SDS011;2689;50.954;7.116;2023-03-01T06:25:16;15.85;;;8.45;;
5333;SDS011;2689;50.954;7.116;2023-03-01T06:27:45;11.38;;;7.93;;
5333;SDS011;2689;50.954;7.116;2023-03-01T06:30:14;14.10;;;7.78;;
5333;SDS011;2689;50.954;7.116;2023-03-01T06:32:42;18.52;;;8.40;;
5333;SDS011;2689;50.954;7.116;2023-03-01T06:35:09;13.82;;;8.43;;
5333;SDS011;2689;50.954;7.116;2023-03-01T06:37:38;15.63;;;9.48;;
5333;SDS011;2689;50.954;7.116;2023-03-01T06:40:06;15.77;;;9.43;;
5333;SDS011;2689;50.954;7.116;2023-03-01T06:42:38;13.57;;;8.32;;
5333;SDS011;2689;50.954;7.116;2023-03-01T06:45:07;16.80;;;10.48;;
5333;SDS011;2689;50.954;7.116;2023-03-01T06:47:35;13.82;;;9.75;;
5333;SDS011;2689;50.954;7.116;2023-03-01T06:50:19;15.18;;;10.68;;
5333;SDS011;2689;50.954;7.116;2023-03-01T06:52:48;12.55;;;9.35;;
5333;SDS011;2689;50.954;7.116;2023-03-01T06:55:37;16.42;;;9.75;;
5333;SDS011;2689;50.954;7.116;2023-03-01T06:58:10;16.88;;;9.70;;
5333;SDS011;2689;50.954;7.116;2023-03-01T07:00:50;15.82;;;9.65;;
5333;SDS011;2689;50.954;7.116;2023-03-01T07:03:17;13.55;;;9.20;;
5333;SDS011;2689;50.954;7.116;2023-03-01T07:05:46;14.15;;;9.80;;
5333;SDS011;2689;50.954;7.116;2023-03-01T07:08:20;18.13;;;9.85;;
5333;SDS011;2689;50.954;7.116;2023-03-01T07:10:54;16.73;;;9.95;;
5333;SDS011;2689;50.954;7.116;2023-03-01T07:13:23;14.85;;;10.30;;
5333;SDS011;2689;50.954;7.116;2023-03-01T07:15:50;17.17;;;10.52;;
5333;SDS011;2689;50.954;7.116;2023-03-01T07:18:17;13.80;;;9.80;;
5333;SDS011;2689;50.954;7.116;2023-03-01T07:20:43;13.50;;;8.70;;
5333;SDS011;2689;50.954;7.116;2023-03-01T07:23:10;14.68;;;10.50;;
5333;SDS011;2689;50.954;7.116;2023-03-01T07:25:37;14.48;;;10.07;;
5333;SDS011;2689;50.954;7.116;2023-03-01T07:28:04;17.63;;;12.15;;
5333;SDS011;2689;50.954;7.116;2023-03-01T07:30:32;15.35;;;9.43;;
5333;SDS011;2689;50.954;7.116;2023-03-01T07:32:59;16.35;;;10.70;;
5333;SDS011;2689;50.954;7.116;2023-03-01T07:35:27;15.23;;;9.48;;
5333;SDS011;2689;50.954;7.116;2023-03-01T07:38:04;15.52;;;10.07;;
5333;SDS011;2689;50.954;7.116;2023-03-01T07:40:50;10.90;;;7.50;;
5333;SDS011;2689;50.954;7.116;2023-03-01T07:43:22;11.85;;;8.55;;
5333;SDS011;2689;50.954;7.116;2023-03-01T07:45:51;14.20;;;9.50;;
5333;SDS011;2689;50.954;7.116;2023-03-01T07:48:18;11.80;;;9.00;;
5333;SDS011;2689;50.954;7.116;2023-03-01T07:53:16;13.80;;;10.20;;
5333;SDS011;2689;50.954;7.116;2023-03-01T07:55:45;14.17;;;10.07;;
5333;SDS011;2689;50.954;7.116;2023-03-01T07:58:14;17.73;;;9.60;;
5333;SDS011;2689;50.954;7.116;2023-03-01T08:00:44;11.73;;;9.10;;
5333;SDS011;2689;50.954;7.116;2023-03-01T08:03:12;17.43;;;8.90;;
5333;SDS011;2689;50.954;7.116;2023-03-01T08:05:40;15.10;;;10.13;;
5333;SDS011;2689;50.954;7.116;2023-03-01T08:08:08;15.00;;;9.13;;
5333;SDS011;2689;50.954;7.116;2023-03-01T08:10:35;11.40;;;8.83;;
5333;SDS011;2689;50.954;7.116;2023-03-01T08:13:03;10.00;;;8.37;;
5333;SDS011;2689;50.954;7.116;2023-03-01T08:15:34;12.87;;;8.60;;
5333;SDS011;2689;50.954;7.116;2023-03-01T08:20:40;9.80;;;8.40;;
5333;SDS011;2689;50.954;7.116;2023-03-01T08:23:10;12.13;;;8.67;;
5333;SDS011;2689;50.954;7.116;2023-03-01T08:25:37;12.37;;;9.10;;
5333;SDS011;2689;50.954;7.116;2023-03-01T08:31:35;10.47;;;7.90;;
5333;SDS011;2689;50.954;7.116;2023-03-01T08:37:12;14.63;;;8.60;;
5333;SDS011;2689;50.954;7.116;2023-03-01T08:40:25;9.43;;;8.43;;
5333;SDS011;2689;50.954;7.116;2023-03-01T08:43:15;11.73;;;8.80;;
5333;SDS011;2689;50.954;7.116;2023-03-01T08:46:08;10.80;;;8.83;;
5333;SDS011;2689;50.954;7.116;2023-03-01T08:49:18;10.40;;;7.47;;
5333;SDS011;2689;50.954;7.116;2023-03-01T08:51:49;9.47;;;8.07;;
5333;SDS011;2689;50.954;7.116;2023-03-01T08:54:21;9.53;;;7.90;;
5333;SDS011;2689;50.954;7.116;2023-03-01T08:56:48;10.57;;;8.20;;
5333;SDS011;2689;50.954;7.116;2023-03-01T08:59:16;17.50;;;10.43;;
5333;SDS011;2689;50.954;7.116;2023-03-01T09:01:46;12.13;;;8.50;;
5333;SDS011;2689;50.954;7.116;2023-03-01T09:04:26;12.07;;;7.90;;
5333;SDS011;2689;50.954;7.116;2023-03-01T09:07:00;9.57;;;8.57;;
5333;SDS011;2689;50.954;7.116;2023-03-01T09:09:48;13.60;;;8.43;;
5333;SDS011;2689;50.954;7.116;2023-03-01T09:12:51;8.57;;;7.63;;
5333;SDS011;2689;50.954;7.116;2023-03-01T09:25:33;10.67;;;8.40;;
5333;SDS011;2689;50.954;7.116;2023-03-01T09:38:20;10.20;;;7.30;;
5333;SDS011;2689;50.954;7.116;2023-03-01T09:40:48;12.93;;;7.90;;
5333;SDS011;2689;50.954;7.116;2023-03-01T09:43:52;10.63;;;7.93;;
5333;SDS011;2689;50.954;7.116;2023-03-01T09:46:22;8.87;;;7.77;;
5333;SDS011;2689;50.954;7.116;2023-03-01T09:48:59;11.53;;;8.43;;
5333;SDS011;2689;50.954;7.116;2023-03-01T09:51:59;12.47;;;7.90;;
5333;SDS011;2689;50.954;7.116;2023-03-01T09:54:29;9.43;;;8.40;;
5333;SDS011;2689;50.954;7.116;2023-03-01T09:57:01;9.13;;;7.77;;
5333;SDS011;2689;50.954;7.116;2023-03-01T09:59:36;8.70;;;7.53;;
5333;SDS011;2689;50.954;7.116;2023-03-01T10:02:38;9.50;;;8.00;;
5333;SDS011;2689;50.954;7.116;2023-03-01T10:05:31;9.90;;;7.67;;
5333;SDS011;2689;50.954;7.116;2023-03-01T10:10:56;8.97;;;7.83;;
5333;SDS011;2689;50.954;7.116;2023-03-01T10:13:45;8.80;;;7.83;;
5333;SDS011;2689;50.954;7.116;2023-03-01T10:22:28;10.43;;;8.00;;
5333;SDS011;2689;50.954;7.116;2023-03-01T10:32:09;12.83;;;9.43;;
5333;SDS011;2689;50.954;7.116;2023-03-01T11:05:49;13.57;;;6.93;;
5333;SDS011;2689;50.954;7.116;2023-03-01T11:11:54;9.87;;;7.83;;
5333;SDS011;2689;50.954;7.116;2023-03-01T11:14:56;9.97;;;7.77;;
5333;SDS011;2689;50.954;7.116;2023-03-01T11:17:44;12.20;;;7.40;;
5333;SDS011;2689;50.954;7.116;2023-03-01T11:20:16;10.90;;;7.60;;
5333;SDS011;2689;50.954;7.116;2023-03-01T11:22:53;9.97;;;7.50;;
5333;SDS011;2689;50.954;7.116;2023-03-01T11:35:33;9.10;;;6.90;;
5333;SDS011;2689;50.954;7.116;2023-03-01T11:38:16;9.13;;;6.60;;
5333;SDS011;2689;50.954;7.116;2023-03-01T11:41:05;9.20;;;6.70;;
5333;SDS011;2689;50.954;7.116;2023-03-01T11:43:36;11.57;;;8.00;;
5333;SDS011;2689;50.954;7.116;2023-03-01T11:46:28;9.50;;;7.47;;
5333;SDS011;2689;50.954;7.116;2023-03-01T11:49:32;9.60;;;7.87;;
5333;SDS011;2689;50.954;7.116;2023-03-01T11:55:17;8.80;;;7.07;;
5333;SDS011;2689;50.954;7.116;2023-03-01T12:00:52;11.83;;;8.13;;
5333;SDS011;2689;50.954;7.116;2023-03-01T12:03:33;8.87;;;7.00;;
5333;SDS011;2689;50.954;7.116;2023-03-01T12:16:24;10.93;;;7.57;;
5333;SDS011;2689;50.954;7.116;2023-03-01T12:19:39;8.60;;;7.10;;
5333;SDS011;2689;50.954;7.116;2023-03-01T12:22:43;14.10;;;8.90;;
5333;SDS011;2689;50.954;7.116;2023-03-01T12:25:20;8.93;;;6.87;;
5333;SDS011;2689;50.954;7.116;2023-03-01T12:28:03;9.83;;;6.20;;
5333;SDS011;2689;50.954;7.116;2023-03-01T12:30:46;10.40;;;7.33;;
5333;SDS011;2689;50.954;7.116;2023-03-01T12:33:30;7.00;;;6.17;;
5333;SDS011;2689;50.954;7.116;2023-03-01T12:36:15;10.57;;;6.50;;
5333;SDS011;2689;50.954;7.116;2023-03-01T12:39:16;9.60;;;7.50;;
5333;SDS011;2689;50.954;7.116;2023-03-01T12:41:56;12.30;;;8.90;;
5333;SDS011;2689;50.954;7.116;2023-03-01T12:44:40;6.90;;;6.20;;
5333;SDS011;2689;50.954;7.116;2023-03-01T12:47:20;8.10;;;6.20;;
5333;SDS011;2689;50.954;7.116;2023-03-01T12:50:00;8.30;;;6.20;;
5333;SDS011;2689;50.954;7.116;2023-03-01T12:52:33;10.00;;;6.90;;
5333;SDS011;2689;50.954;7.116;2023-03-01T12:55:06;7.97;;;6.47;;
5333;SDS011;2689;50.954;7.116;2023-03-01T12:57:46;6.90;;;5.77;;
5333;SDS011;2689;50.954;7.116;2023-03-01T13:00:22;9.53;;;7.80;;
5333;SDS011;2689;50.954;7.116;2023-03-01T13:02:55;8.80;;;6.43;;
5333;SDS011;2689;50.954;7.116;2023-03-01T13:05:36;6.60;;;5.10;;
5333;SDS011;2689;50.954;7.116;2023-03-01T13:08:12;8.00;;;6.13;;
5333;SDS011;2689;50.954;7.116;2023-03-01T13:10:46;9.83;;;7.20;;
5333;SDS011;2689;50.954;7.116;2023-03-01T13:13:19;11.40;;;9.27;;
5333;SDS011;2689;50.954;7.116;2023-03-01T13:15:48;9.87;;;6.90;;
5333;SDS011;2689;50.954;7.116;2023-03-01T13:18:29;9.20;;;7.03;;
5333;SDS011;2689;50.954;7.116;2023-03-01T13:21:00;12.00;;;7.50;;
5333;SDS011;2689;50.954;7.116;2023-03-01T13:23:30;9.07;;;7.70;;
5333;SDS011;2689;50.954;7.116;2023-03-01T13:26:00;11.83;;;7.43;;
5333;SDS011;2689;50.954;7.116;2023-03-01T13:28:41;8.37;;;7.23;;
5333;SDS011;2689;50.954;7.116;2023-03-01T13:34:39;11.33;;;7.10;;
5333;SDS011;2689;50.954;7.116;2023-03-01T13:37:22;12.23;;;8.13;;
5333;SDS011;2689;50.954;7.116;2023-03-01T13:39:58;10.27;;;7.07;;
5333;SDS011;2689;50.954;7.116;2023-03-01T13:42:41;9.30;;;7.40;;
5333;SDS011;2689;50.954;7.116;2023-03-01T13:45:19;9.97;;;7.83;;
5333;SDS011;2689;50.954;7.116;2023-03-01T13:47:50;7.60;;;6.70;;
5333;SDS011;2689;50.954;7.116;2023-03-01T13:50:23;10.17;;;7.40;;
5333;SDS011;2689;50.954;7.116;2023-03-01T13:52:54;10.13;;;7.30;;
5333;SDS011;2689;50.954;7.116;2023-03-01T13:55:25;8.87;;;6.53;;
5333;SDS011;2689;50.954;7.116;2023-03-01T13:57:59;9.00;;;6.33;;
5333;SDS011;2689;50.954;7.116;2023-03-01T14:00:33;9.17;;;7.30;;
5333;SDS011;2689;50.954;7.116;2023-03-01T14:03:02;7.90;;;6.60;;
5333;SDS011;2689;50.954;7.116;2023-03-01T14:05:31;8.77;;;6.80;;
5333;SDS011;2689;50.954;7.116;2023-03-01T14:07:59;10.00;;;7.10;;
5333;SDS011;2689;50.954;7.116;2023-03-01T14:10:28;7.60;;;6.20;;
5333;SDS011;2689;50.954;7.116;2023-03-01T14:13:05;8.20;;;6.97;;
5333;SDS011;2689;50.954;7.116;2023-03-01T14:15:47;6.90;;;5.60;;
5333;SDS011;2689;50.954;7.116;2023-03-01T14:18:24;7.83;;;5.80;;
5333;SDS011;2689;50.954;7.116;2023-03-01T14:20:56;8.53;;;6.03;;
5333;SDS011;2689;50.954;7.116;2023-03-01T14:23:25;9.77;;;5.60;;
5333;SDS011;2689;50.954;7.116;2023-03-01T14:25:55;7.50;;;6.17;;
5333;SDS011;2689;50.954;7.116;2023-03-01T14:28:24;9.07;;;6.20;;
5333;SDS011;2689;50.954;7.116;2023-03-01T14:30:53;12.13;;;6.87;;
5333;SDS011;2689;50.954;7.116;2023-03-01T14:33:22;9.00;;;6.50;;
5333;SDS011;2689;50.954;7.116;2023-03-01T14:35:55;7.30;;;5.97;;
5333;SDS011;2689;50.954;7.116;2023-03-01T14:38:28;6.33;;;5.70;;
5333;SDS011;2689;50.954;7.116;2023-03-01T14:41:01;8.50;;;6.57;;
5333;SDS011;2689;50.954;7.116;2023-03-01T14:43:29;11.23;;;6.83;;
5333;SDS011;2689;50.954;7.116;2023-03-01T14:45:57;7.90;;;7.10;;
5333;SDS011;2689;50.954;7.116;2023-03-01T14:48:24;7.67;;;6.80;;
5333;SDS011;2689;50.954;7.116;2023-03-01T14:50:53;10.57;;;6.43;;
5333;SDS011;2689;50.954;7.116;2023-03-01T14:53:21;8.77;;;7.47;;
5333;SDS011;2689;50.954;7.116;2023-03-01T14:55:52;7.70;;;6.90;;
5333;SDS011;2689;50.954;7.116;2023-03-01T14:58:21;10.60;;;6.63;;
5333;SDS011;2689;50.954;7.116;2023-03-01T15:00:50;8.17;;;5.90;;
5333;SDS011;2689;50.954;7.116;2023-03-01T15:03:20;7.03;;;6.27;;
5333;SDS011;2689;50.954;7.116;2023-03-01T15:05:51;11.60;;;7.53;;
5333;SDS011;2689;50.954;7.116;2023-03-01T15:08:20;9.53;;;7.00;;
5333;SDS011;2689;50.954;7.116;2023-03-01T15:10:58;14.47;;;7.27;;
5333;SDS011;2689;50.954;7.116;2023-03-01T15:13:29;12.20;;;6.80;;
5333;SDS011;2689;50.954;7.116;2023-03-01T15:16:01;9.37;;;6.37;;
5333;SDS011;2689;50.954;7.116;2023-03-01T15:18:31;9.50;;;6.63;;
5333;SDS011;2689;50.954;7.116;2023-03-01T15:21:05;10.63;;;6.67;;
5333;SDS011;2689;50.954;7.116;2023-03-01T15:23:34;10.27;;;7.10;;
5333;SDS011;2689;50.954;7.116;2023-03-01T15:26:05;7.63;;;6.83;;
5333;SDS011;2689;50.954;7.116;2023-03-01T15:28:49;7.53;;;6.07;;
5333;SDS011;2689;50.954;7.116;2023-03-01T15:31:18;10.03;;;7.03;;
5333;SDS011;2689;50.954;7.116;2023-03-01T15:33:47;8.63;;;6.83;;
5333;SDS011;2689;50.954;7.116;2023-03-01T15:36:29;9.67;;;7.40;;
5333;SDS011;2689;50.954;7.116;2023-03-01T15:39:05;9.43;;;7.40;;
5333;SDS011;2689;50.954;7.116;2023-03-01T15:44:26;9.90;;;6.40;;
5333;SDS011;2689;50.954;7.116;2023-03-01T15:46:55;10.90;;;5.73;;
5333;SDS011;2689;50.954;7.116;2023-03-01T15:49:25;9.40;;;6.00;;
5333;SDS011;2689;50.954;7.116;2023-03-01T15:51:58;25.63;;;14.80;;
5333;SDS011;2689;50.954;7.116;2023-03-01T15:54:25;9.57;;;7.20;;
5333;SDS011;2689;50.954;7.116;2023-03-01T15:56:53;10.60;;;8.30;;
5333;SDS011;2689;50.954;7.116;2023-03-01T15:59:20;12.70;;;7.10;;
5333;SDS011;2689;50.954;7.116;2023-03-01T16:01:48;12.50;;;8.20;;
5333;SDS011;2689;50.954;7.116;2023-03-01T16:04:16;10.60;;;7.03;;
5333;SDS011;2689;50.954;7.116;2023-03-01T16:06:47;8.43;;;5.43;;
5333;SDS011;2689;50.954;7.116;2023-03-01T16:09:19;8.77;;;6.30;;
5333;SDS011;2689;50.954;7.116;2023-03-01T16:11:48;8.00;;;6.50;;
5333;SDS011;2689;50.954;7.116;2023-03-01T16:14:14;7.03;;;5.40;;
5333;SDS011;2689;50.954;7.116;2023-03-01T16:16:41;7.73;;;6.40;;
5333;SDS011;2689;50.954;7.116;2023-03-01T16:19:10;9.63;;;6.60;;
5333;SDS011;2689;50.954;7.116;2023-03-01T16:21:37;20.20;;;10.80;;
5333;SDS011;2689;50.954;7.116;2023-03-01T16:24:04;13.83;;;8.70;;
5333;SDS011;2689;50.954;7.116;2023-03-01T16:26:32;17.40;;;8.40;;
5333;SDS011;2689;50.954;7.116;2023-03-01T16:28:59;10.90;;;7.27;;
5333;SDS011;2689;50.954;7.116;2023-03-01T16:31:25;14.83;;;7.23;;
5333;SDS011;2689;50.954;7.116;2023-03-01T16:33:54;8.40;;;6.20;;
5333;SDS011;2689;50.954;7.116;2023-03-01T16:36:23;14.63;;;8.83;;
5333;SDS011;2689;50.954;7.116;2023-03-01T16:38:53;9.50;;;6.70;;
5333;SDS011;2689;50.954;7.116;2023-03-01T16:41:21;9.00;;;6.20;;
5333;SDS011;2689;50.954;7.116;2023-03-01T16:43:49;15.40;;;7.97;;
5333;SDS011;2689;50.954;7.116;2023-03-01T16:46:17;13.33;;;6.37;;
5333;SDS011;2689;50.954;7.116;2023-03-01T16:48:45;9.67;;;6.80;;
5333;SDS011;2689;50.954;7.116;2023-03-01T16:51:13;9.60;;;6.60;;
5333;SDS011;2689;50.954;7.116;2023-03-01T16:53:42;9.33;;;6.47;;
5333;SDS011;2689;50.954;7.116;2023-03-01T16:56:10;8.70;;;6.57;;
5333;SDS011;2689;50.954;7.116;2023-03-01T16:58:38;11.07;;;7.27;;
5333;SDS011;2689;50.954;7.116;2023-03-01T17:01:06;12.20;;;6.80;;
5333;SDS011;2689;50.954;7.116;2023-03-01T17:03:34;11.60;;;6.90;;
5333;SDS011;2689;50.954;7.116;2023-03-01T17:06:01;9.50;;;6.93;;
5333;SDS011;2689;50.954;7.116;2023-03-01T17:08:30;9.90;;;6.80;;
5333;SDS011;2689;50.954;7.116;2023-03-01T17:11:03;13.30;;;7.53;;
5333;SDS011;2689;50.954;7.116;2023-03-01T17:13:30;16.50;;;9.67;;
5333;SDS011;2689;50.954;7.116;2023-03-01T17:15:57;17.60;;;9.53;;
5333;SDS011;2689;50.954;7.116;2023-03-01T17:18:24;15.67;;;8.10;;
5333;SDS011;2689;50.954;7.116;2023-03-01T17:20:50;12.47;;;7.60;;
5333;SDS011;2689;50.954;7.116;2023-03-01T17:23:17;16.17;;;8.97;;
5333;SDS011;2689;50.954;7.116;2023-03-01T17:25:44;20.17;;;8.30;;
5333;SDS011;2689;50.954;7.116;2023-03-01T17:28:13;12.33;;;8.20;;
5333;SDS011;2689;50.954;7.116;2023-03-01T17:30:40;11.73;;;7.47;;
5333;SDS011;2689;50.954;7.116;2023-03-01T17:33:09;13.33;;;8.10;;